createdAt,value
2022-07-27T00:01:50.609Z,45.03
2022-07-27T00:04:19.017Z,45.23
2022-07-27T00:06:46.482Z,45.20
2022-07-27T00:09:13.578Z,45.37
2022-07-27T00:11:40.584Z,45.51
2022-07-27T00:14:07.441Z,45.53
2022-07-27T00:16:34.362Z,45.51
2022-07-27T00:19:01.241Z,45.38
2022-07-27T00:21:28.114Z,45.55
2022-07-27T00:23:56.400Z,45.71
2022-07-27T00:26:23.231Z,45.86
2022-07-27T00:28:50.701Z,45.81
2022-07-27T00:31:17.983Z,45.74
2022-07-27T00:33:45.064Z,45.95
2022-07-27T00:36:12.036Z,46.16
2022-07-27T00:38:39.030Z,46.09
2022-07-27T00:41:05.952Z,46.23
2022-07-27T00:43:33.843Z,46.16
2022-07-27T00:46:04.957Z,46.28
2022-07-27T00:48:32.234Z,46.51
2022-07-27T00:50:59.573Z,46.41
2022-07-27T00:53:26.482Z,46.58
2022-07-27T00:55:53.347Z,46.39
2022-07-27T00:58:20.141Z,46.60
2022-07-27T01:00:46.935Z,46.79
2022-07-27T01:03:16.318Z,46.85
2022-07-27T01:05:44.015Z,46.91
2022-07-27T01:08:15.188Z,47.00
2022-07-27T01:10:43.627Z,46.96
2022-07-27T01:13:13.049Z,47.13
2022-07-27T01:15:41.522Z,47.19
2022-07-27T01:18:15.174Z,47.13
2022-07-27T01:20:42.962Z,47.10
2022-07-27T01:23:11.023Z,47.03
2022-07-27T01:25:41.647Z,47.29
2022-07-27T01:28:08.470Z,47.44
2022-07-27T01:30:35.553Z,47.30
2022-07-27T01:33:08.039Z,47.39
2022-07-27T01:35:36.946Z,47.39
2022-07-27T01:38:04.598Z,47.28
2022-07-27T01:40:31.921Z,47.50
2022-07-27T01:42:58.715Z,47.63
2022-07-27T01:45:25.708Z,47.57
2022-07-27T01:47:52.494Z,47.63
2022-07-27T01:50:19.404Z,47.68
2022-07-27T01:52:46.265Z,47.60
2022-07-27T01:55:13.084Z,47.62
2022-07-27T01:57:40.259Z,47.59
2022-07-27T02:00:11.145Z,47.68
2022-07-27T02:02:38.493Z,47.79
2022-07-27T02:05:06.036Z,47.96
2022-07-27T02:07:32.963Z,48.03
2022-07-27T02:09:59.791Z,47.97
2022-07-27T02:12:35.483Z,48.04
2022-07-27T02:15:14.898Z,47.96
2022-07-27T02:17:45.063Z,48.12
2022-07-27T02:20:15.349Z,48.34
2022-07-27T02:22:43.033Z,48.29
2022-07-27T02:25:12.175Z,48.44
2022-07-27T02:27:43.145Z,48.45
2022-07-27T02:30:12.306Z,48.66
2022-07-27T02:32:44.100Z,48.49
2022-07-27T02:35:18.831Z,48.62
2022-07-27T02:37:48.519Z,48.79
2022-07-27T02:40:17.492Z,48.77
2022-07-27T02:42:45.713Z,48.64
2022-07-27T02:45:13.489Z,48.98
2022-07-27T02:47:40.425Z,48.86
2022-07-27T02:50:09.826Z,48.93
2022-07-27T02:52:37.376Z,49.07
2022-07-27T02:55:05.426Z,49.06
2022-07-27T02:57:34.352Z,48.96
2022-07-27T03:00:07.437Z,49.27
2022-07-27T03:02:34.243Z,49.27
2022-07-27T03:05:01.098Z,49.16
2022-07-27T03:07:27.976Z,49.16
2022-07-27T03:09:54.774Z,49.37
2022-07-27T03:12:21.553Z,49.45
2022-07-27T03:14:48.342Z,49.33
2022-07-27T03:17:15.120Z,49.48
2022-07-27T03:19:41.933Z,49.47
2022-07-27T03:22:08.879Z,49.44
2022-07-27T03:24:35.708Z,49.42
2022-07-27T03:27:02.491Z,49.66
2022-07-27T03:29:29.449Z,49.71
2022-07-27T03:31:56.525Z,49.79
2022-07-27T03:34:23.522Z,49.85
2022-07-27T03:36:50.517Z,49.85
2022-07-27T03:39:17.497Z,49.77
2022-07-27T03:41:44.286Z,49.75
2022-07-27T03:44:11.083Z,49.91
2022-07-27T03:46:37.940Z,49.83
2022-07-27T03:49:14.441Z,49.91
2022-07-27T03:51:42.164Z,50.05
2022-07-27T03:54:08.968Z,50.02
2022-07-27T03:56:35.943Z,50.17
2022-07-27T03:59:02.827Z,50.22
2022-07-27T04:01:29.774Z,50.25
2022-07-27T04:03:56.609Z,50.40
2022-07-27T04:06:23.405Z,50.36
2022-07-27T04:08:50.769Z,50.42
2022-07-27T04:11:20.702Z,50.54
2022-07-27T04:13:51.845Z,50.50
2022-07-27T04:16:18.841Z,50.59
2022-07-27T04:18:45.718Z,50.76
2022-07-27T04:21:13.334Z,50.73
2022-07-27T04:23:40.136Z,50.62
2022-07-27T04:26:06.963Z,50.63
2022-07-27T04:28:34.905Z,50.81
2022-07-27T04:31:01.775Z,51.29
2022-07-27T04:33:28.871Z,50.78
2022-07-27T04:35:55.827Z,50.95
2022-07-27T04:38:22.752Z,50.71
2022-07-27T04:40:50.484Z,50.89
2022-07-27T04:43:19.106Z,51.03
2022-07-27T04:45:47.458Z,50.95
2022-07-27T04:48:14.570Z,51.00
2022-07-27T04:50:43.199Z,51.11
2022-07-27T04:53:11.332Z,51.05
2022-07-27T04:55:42.126Z,50.86
2022-07-27T04:58:09.178Z,51.08
2022-07-27T05:00:36.117Z,50.98
2022-07-27T05:03:03.320Z,51.08
2022-07-27T05:05:30.614Z,51.12
2022-07-27T05:07:57.587Z,51.03
2022-07-27T05:10:25.510Z,51.06
2022-07-27T05:12:52.332Z,51.25
2022-07-27T05:15:19.329Z,51.36
2022-07-27T05:17:46.353Z,51.15
2022-07-27T05:20:13.838Z,51.19
2022-07-27T05:22:40.641Z,51.25
2022-07-27T05:25:08.330Z,51.40
2022-07-27T05:27:37.095Z,51.44
2022-07-27T05:30:06.242Z,51.27
2022-07-27T05:32:33.235Z,51.21
2022-07-27T05:35:00.053Z,50.63
2022-07-27T05:37:26.885Z,50.34
2022-07-27T05:39:53.698Z,49.25
2022-07-27T05:42:20.465Z,48.51
2022-07-27T05:44:47.270Z,47.54
2022-07-27T05:47:14.147Z,46.55
2022-07-27T05:49:40.985Z,46.09
2022-07-27T05:52:07.794Z,46.02
2022-07-27T05:54:34.655Z,45.38
2022-07-27T05:57:01.454Z,44.96
2022-07-27T05:59:29.389Z,45.01
2022-07-27T06:01:56.192Z,44.86
2022-07-27T06:04:22.980Z,44.65
2022-07-27T06:07:08.181Z,44.42
2022-07-27T06:09:34.996Z,44.36
2022-07-27T06:12:02.122Z,43.77
2022-07-27T06:14:28.900Z,43.38
2022-07-27T06:16:55.816Z,42.55
2022-07-27T06:19:22.651Z,42.10
2022-07-27T06:21:53.590Z,41.76
2022-07-27T06:24:20.821Z,41.02
2022-07-27T06:26:47.615Z,41.14
2022-07-27T06:29:15.146Z,41.28
2022-07-27T06:31:42.243Z,41.35
2022-07-27T06:34:11.739Z,40.68
2022-07-27T06:36:41.117Z,40.66
2022-07-27T06:39:08.213Z,40.25
2022-07-27T06:41:35.129Z,40.36
2022-07-27T06:44:01.917Z,39.75
2022-07-27T06:46:28.819Z,39.43
2022-07-27T06:48:56.711Z,39.60
2022-07-27T06:51:24.359Z,39.83
2022-07-27T06:53:54.370Z,39.76
2022-07-27T06:56:22.141Z,39.29
2022-07-27T06:58:49.360Z,38.97
2022-07-27T07:01:16.326Z,38.52
2022-07-27T07:03:43.386Z,38.27
2022-07-27T07:06:10.561Z,38.23
2022-07-27T07:08:37.342Z,38.43
2022-07-27T07:11:04.340Z,38.30
2022-07-27T07:13:34.167Z,38.13
2022-07-27T07:16:04.492Z,37.11
2022-07-27T07:18:31.336Z,36.31
2022-07-27T07:20:58.957Z,35.90
2022-07-27T07:23:25.724Z,35.59
2022-07-27T07:25:52.603Z,35.22
2022-07-27T07:28:22.100Z,35.57
2022-07-27T07:30:49.644Z,35.57
2022-07-27T07:33:16.511Z,36.06
2022-07-27T07:36:13.440Z,36.50
2022-07-27T07:38:30.340Z,36.67
2022-07-27T07:40:57.140Z,35.86
2022-07-27T07:43:24.045Z,35.30
2022-07-27T07:45:52.222Z,34.62
2022-07-27T07:48:23.060Z,34.47
2022-07-27T07:50:52.999Z,34.94
2022-07-27T07:53:22.636Z,35.32
2022-07-27T07:55:50.182Z,35.14
2022-07-27T07:58:16.963Z,35.27
2022-07-27T08:00:43.909Z,35.02
2022-07-27T08:03:10.996Z,35.07
2022-07-27T08:05:37.955Z,35.38
2022-07-27T08:08:05.038Z,35.55
2022-07-27T08:10:32.097Z,35.95
2022-07-27T08:12:58.935Z,36.27
2022-07-27T08:15:35.428Z,35.60
2022-07-27T08:18:07.306Z,35.09
2022-07-27T08:20:34.735Z,34.71
2022-07-27T08:23:02.254Z,33.24
2022-07-27T08:25:29.450Z,33.76
2022-07-27T08:27:56.537Z,33.16
2022-07-27T08:30:24.005Z,34.35
2022-07-27T08:33:01.183Z,34.72
2022-07-27T08:35:29.466Z,34.96
2022-07-27T08:37:57.054Z,35.43
2022-07-27T08:40:42.964Z,35.62
2022-07-27T08:43:18.940Z,35.96
2022-07-27T08:45:56.357Z,35.99
2022-07-27T08:48:25.996Z,36.12
2022-07-27T08:50:54.058Z,36.21
2022-07-27T08:53:22.561Z,35.96
2022-07-27T08:55:50.101Z,35.41
2022-07-27T08:58:17.454Z,34.64
2022-07-27T09:00:48.010Z,34.64
2022-07-27T09:03:19.448Z,34.94
2022-07-27T09:05:58.391Z,35.14
2022-07-27T09:08:31.411Z,35.55
2022-07-27T09:10:59.485Z,35.72
2022-07-27T09:13:30.454Z,35.85
2022-07-27T09:16:17.974Z,35.25
2022-07-27T09:18:45.933Z,34.96
2022-07-27T09:21:24.027Z,35.09
2022-07-27T09:24:17.915Z,35.02
2022-07-27T09:27:02.700Z,34.95
2022-07-27T09:29:35.849Z,35.17
2022-07-27T09:32:17.514Z,35.56
2022-07-27T09:34:45.104Z,35.53
2022-07-27T09:37:12.289Z,35.29
2022-07-27T09:39:39.225Z,35.54
2022-07-27T09:42:06.170Z,34.98
2022-07-27T09:44:42.109Z,35.08
2022-07-27T09:47:28.524Z,33.13
2022-07-27T09:50:20.478Z,33.78
2022-07-27T09:52:47.621Z,34.16
2022-07-27T09:55:14.568Z,34.69
2022-07-27T09:57:56.453Z,34.47
2022-07-27T10:00:24.914Z,34.35
2022-07-27T10:02:53.334Z,34.68
2022-07-27T10:05:24.146Z,34.71
2022-07-27T10:07:53.887Z,34.27
2022-07-27T10:10:22.881Z,34.22
2022-07-27T10:12:54.597Z,34.17
2022-07-27T10:15:23.975Z,34.02
2022-07-27T10:18:02.064Z,33.82
2022-07-27T10:20:33.360Z,33.20
2022-07-27T10:23:00.326Z,32.50
2022-07-27T10:25:32.304Z,32.85
2022-07-27T10:28:16.392Z,33.33
2022-07-27T10:30:43.940Z,33.28
2022-07-27T10:33:47.147Z,34.00
2022-07-27T10:36:30.762Z,33.96
2022-07-27T10:39:01.184Z,33.68
2022-07-27T10:41:34.213Z,33.39
2022-07-27T10:44:20.869Z,33.30
2022-07-27T10:47:04.483Z,33.36
2022-07-27T10:49:40.397Z,33.17
2022-07-27T10:53:05.091Z,33.98
2022-07-27T10:55:32.380Z,33.01
2022-07-27T10:58:22.100Z,33.39
2022-07-27T11:00:58.306Z,32.88
2022-07-27T11:03:33.442Z,33.12
2022-07-27T11:06:31.912Z,33.09
2022-07-27T11:11:49.434Z,33.37
2022-07-27T11:14:18.912Z,33.10
2022-07-27T11:16:55.852Z,33.47
2022-07-27T11:19:23.985Z,33.29
2022-07-27T11:21:52.384Z,32.99
2022-07-27T11:24:19.239Z,32.76
2022-07-27T11:26:49.927Z,32.95
2022-07-27T11:29:19.858Z,32.87
2022-07-27T11:31:56.695Z,32.41
2022-07-27T11:34:36.360Z,32.62
2022-07-27T11:37:13.976Z,32.27
2022-07-27T11:39:59.882Z,32.15
2022-07-27T11:42:40.353Z,32.47
2022-07-27T11:45:07.806Z,32.49
2022-07-27T11:47:35.722Z,32.35
2022-07-27T11:50:11.976Z,32.39
2022-07-27T11:52:39.064Z,32.63
2022-07-27T11:55:07.771Z,32.62
2022-07-27T11:57:35.969Z,32.33
2022-07-27T12:00:05.080Z,32.59
2022-07-27T12:02:31.978Z,32.39
2022-07-27T12:05:02.957Z,32.32
2022-07-27T12:07:32.572Z,32.90
2022-07-27T12:10:02.408Z,31.96
2022-07-27T12:12:34.850Z,31.71
2022-07-27T12:15:44.822Z,31.52
2022-07-27T12:18:02.892Z,31.52
2022-07-27T12:20:35.193Z,31.62
2022-07-27T12:23:08.087Z,31.44
2022-07-27T12:25:36.184Z,31.25
2022-07-27T12:28:15.064Z,31.30
2022-07-27T12:30:47.199Z,31.03
2022-07-27T12:33:37.635Z,31.63
2022-07-27T12:36:07.814Z,31.21
2022-07-27T12:38:45.820Z,31.45
2022-07-27T12:41:32.552Z,30.72
2022-07-27T12:44:11.946Z,30.71
2022-07-27T12:46:59.293Z,31.50
2022-07-27T12:49:28.642Z,31.24
2022-07-27T12:52:09.454Z,31.60
2022-07-27T12:54:37.381Z,31.19
2022-07-27T12:57:04.543Z,31.01
2022-07-27T12:59:31.367Z,31.26
2022-07-27T13:01:58.270Z,31.28
2022-07-27T13:04:25.209Z,31.51
2022-07-27T13:06:52.009Z,31.44
2022-07-27T13:09:18.842Z,31.77
2022-07-27T13:11:48.147Z,31.60
2022-07-27T13:14:15.574Z,32.15
2022-07-27T13:16:42.442Z,31.65
2022-07-27T13:19:09.605Z,32.20
2022-07-27T13:21:36.717Z,32.03
2022-07-27T13:24:03.786Z,31.80
2022-07-27T13:26:30.564Z,31.98
2022-07-27T13:28:57.402Z,32.03
2022-07-27T13:31:24.230Z,31.30
2022-07-27T13:33:52.056Z,31.51
2022-07-27T13:36:18.848Z,31.46
2022-07-27T13:38:45.645Z,30.63
2022-07-27T13:41:12.553Z,31.30
2022-07-27T13:43:39.386Z,31.39
2022-07-27T13:46:08.400Z,31.29
2022-07-27T13:48:35.371Z,31.11
2022-07-27T13:51:03.397Z,31.20
2022-07-27T13:53:30.491Z,31.05
2022-07-27T13:55:57.276Z,31.10
2022-07-27T13:58:24.246Z,31.33
2022-07-27T14:00:51.709Z,31.43
2022-07-27T14:03:18.695Z,31.15
2022-07-27T14:05:49.588Z,30.91
2022-07-27T14:08:18.608Z,31.29
2022-07-27T14:10:45.430Z,30.99
2022-07-27T14:13:15.917Z,31.06
2022-07-27T14:15:53.489Z,31.09
2022-07-27T14:18:26.560Z,31.38
2022-07-27T14:20:55.723Z,31.43
2022-07-27T14:23:24.014Z,31.01
2022-07-27T14:25:51.804Z,31.37
2022-07-27T14:28:18.682Z,31.54
2022-07-27T14:30:47.080Z,31.85
2022-07-27T14:33:14.776Z,31.38
2022-07-27T14:35:42.062Z,31.74
2022-07-27T14:38:10.044Z,31.62
2022-07-27T14:40:37.920Z,31.97
2022-07-27T14:43:05.370Z,31.93
2022-07-27T14:45:43.977Z,31.81
2022-07-27T14:48:15.942Z,31.94
2022-07-27T14:50:46.146Z,32.34
2022-07-27T14:53:13.205Z,32.46
2022-07-27T14:55:42.327Z,32.40
2022-07-27T14:58:11.227Z,32.01
2022-07-27T15:00:39.751Z,32.00
2022-07-27T15:03:07.249Z,32.05
2022-07-27T15:05:50.019Z,31.88
2022-07-27T15:08:20.589Z,32.49
2022-07-27T15:10:48.722Z,32.19
2022-07-27T15:13:16.285Z,32.07
2022-07-27T15:15:43.127Z,32.37
2022-07-27T15:18:10.086Z,32.56
2022-07-27T15:20:36.933Z,32.45
2022-07-27T15:23:04.316Z,32.12
2022-07-27T15:25:31.115Z,32.29
2022-07-27T15:27:58.237Z,32.22
2022-07-27T15:30:25.037Z,32.41
2022-07-27T15:32:51.835Z,32.00
2022-07-27T15:35:18.689Z,31.97
2022-07-27T15:37:54.560Z,32.18
2022-07-27T15:40:38.374Z,31.61
2022-07-27T15:43:10.474Z,31.88
2022-07-27T15:45:47.093Z,31.46
2022-07-27T15:48:16.210Z,31.83
2022-07-27T15:50:48.351Z,31.52
2022-07-27T15:53:15.558Z,31.53
2022-07-27T15:55:43.722Z,31.77
2022-07-27T15:58:11.430Z,32.00
2022-07-27T16:00:40.903Z,31.66
2022-07-27T16:03:10.433Z,31.80
2022-07-27T16:05:38.692Z,31.99
2022-07-27T16:08:07.481Z,31.97
2022-07-27T16:10:34.326Z,32.23
2022-07-27T16:13:01.330Z,32.25
2022-07-27T16:15:47.120Z,32.29
2022-07-27T16:18:13.964Z,32.21
2022-07-27T16:20:40.793Z,31.98
2022-07-27T16:23:14.417Z,32.50
2022-07-27T16:26:02.534Z,32.24
2022-07-27T16:28:32.190Z,32.56
2022-07-27T16:30:59.133Z,32.33
2022-07-27T16:33:26.160Z,32.45
2022-07-27T16:35:53.130Z,32.30
2022-07-27T16:38:19.963Z,32.51
2022-07-27T16:40:46.800Z,32.45
2022-07-27T16:43:13.593Z,32.51
2022-07-27T16:45:40.421Z,32.52
2022-07-27T16:48:07.855Z,32.66
2022-07-27T16:50:34.897Z,32.95
2022-07-27T16:53:01.669Z,32.75
2022-07-27T16:55:28.669Z,32.90
2022-07-27T16:57:55.880Z,33.19
2022-07-27T17:00:23.254Z,33.35
2022-07-27T17:02:50.469Z,33.39
2022-07-27T17:05:17.271Z,33.37
2022-07-27T17:07:44.071Z,33.53
2022-07-27T17:10:10.934Z,33.65
2022-07-27T17:12:39.070Z,33.70
2022-07-27T17:15:07.765Z,33.50
2022-07-27T17:17:34.895Z,33.67
2022-07-27T17:20:01.799Z,33.63
2022-07-27T17:22:28.603Z,33.65
2022-07-27T17:24:55.434Z,33.95
2022-07-27T17:27:22.302Z,33.79
2022-07-27T17:29:51.481Z,33.80
2022-07-27T17:32:18.305Z,33.50
2022-07-27T17:34:45.549Z,33.57
2022-07-27T17:37:13.091Z,33.60
2022-07-27T17:39:39.902Z,33.64
2022-07-27T17:42:07.054Z,33.32
2022-07-27T17:44:34.072Z,33.54
2022-07-27T17:47:01.712Z,33.58
2022-07-27T17:49:28.683Z,33.37
2022-07-27T17:51:55.986Z,33.61
2022-07-27T17:54:24.303Z,33.91
2022-07-27T17:56:51.104Z,33.56
2022-07-27T17:59:37.178Z,33.74
2022-07-27T18:02:05.292Z,33.47
2022-07-27T18:04:38.939Z,33.63
2022-07-27T18:07:06.391Z,33.71
2022-07-27T18:09:33.602Z,33.75
2022-07-27T18:12:00.462Z,33.80
2022-07-27T18:14:27.425Z,33.83
2022-07-27T18:16:54.275Z,33.78
2022-07-27T18:19:21.151Z,33.87
2022-07-27T18:21:47.953Z,33.99
2022-07-27T18:24:15.673Z,34.06
2022-07-27T18:26:42.616Z,33.91
2022-07-27T18:29:09.939Z,34.00
2022-07-27T18:31:37.353Z,33.80
2022-07-27T18:34:06.849Z,33.76
2022-07-27T18:36:38.745Z,34.01
2022-07-27T18:39:05.730Z,34.13
2022-07-27T18:41:32.509Z,34.00
2022-07-27T18:43:59.334Z,34.29
2022-07-27T18:46:26.633Z,34.32
2022-07-27T18:48:53.609Z,34.46
2022-07-27T18:51:21.564Z,34.36
2022-07-27T18:53:48.927Z,34.71
2022-07-27T18:56:15.933Z,34.83
2022-07-27T18:58:42.759Z,34.78
2022-07-27T19:01:09.719Z,35.00
2022-07-27T19:03:37.247Z,35.14
2022-07-27T19:06:06.736Z,35.38
2022-07-27T19:08:37.332Z,35.65
2022-07-27T19:11:04.130Z,35.80
2022-07-27T19:13:30.917Z,35.52
2022-07-27T19:16:00.744Z,35.63
2022-07-27T19:18:27.556Z,35.84
2022-07-27T19:20:55.393Z,35.88
2022-07-27T19:23:23.399Z,36.10
2022-07-27T19:25:50.246Z,36.22
2022-07-27T19:28:20.810Z,36.03
2022-07-27T19:30:48.595Z,36.20
2022-07-27T19:33:15.419Z,36.38
2022-07-27T19:35:42.409Z,36.61
2022-07-27T19:38:10.485Z,36.46
2022-07-27T19:40:45.846Z,36.70
2022-07-27T19:43:15.108Z,36.68
2022-07-27T19:45:42.153Z,36.88
2022-07-27T19:48:09.250Z,36.91
2022-07-27T19:50:36.039Z,37.02
2022-07-27T19:53:04.109Z,37.03
2022-07-27T19:55:30.904Z,37.05
2022-07-27T19:57:57.684Z,37.34
2022-07-27T20:00:24.606Z,37.46
2022-07-27T20:02:51.530Z,37.28
2022-07-27T20:05:18.462Z,37.51
2022-07-27T20:07:45.346Z,37.60
2022-07-27T20:10:12.351Z,37.74
2022-07-27T20:12:39.204Z,37.65
2022-07-27T20:15:06.785Z,37.94
2022-07-27T20:17:37.570Z,38.09
2022-07-27T20:20:08.963Z,38.00
2022-07-27T20:22:35.981Z,38.20
2022-07-27T20:25:03.027Z,38.32
2022-07-27T20:27:29.865Z,38.37
2022-07-27T20:29:56.697Z,38.30
2022-07-27T20:32:23.562Z,38.61
2022-07-27T20:34:50.350Z,38.27
2022-07-27T20:37:17.594Z,38.79
2022-07-27T20:39:44.417Z,38.46
2022-07-27T20:42:11.247Z,38.76
2022-07-27T20:44:38.062Z,38.96
2022-07-27T20:47:06.201Z,38.98
2022-07-27T20:49:34.232Z,39.17
2022-07-27T20:52:01.975Z,39.01
2022-07-27T20:54:29.586Z,38.84
2022-07-27T20:56:56.995Z,39.02
2022-07-27T20:59:24.162Z,39.16
2022-07-27T21:01:52.513Z,39.19
2022-07-27T21:04:20.335Z,39.28
2022-07-27T21:06:47.162Z,39.70
2022-07-27T21:09:14.421Z,39.44
2022-07-27T21:11:41.488Z,39.75
2022-07-27T21:14:09.540Z,39.69
2022-07-27T21:16:37.095Z,39.83
2022-07-27T21:19:04.033Z,39.83
2022-07-27T21:21:30.822Z,39.97
2022-07-27T21:24:17.347Z,39.73
2022-07-27T21:26:48.667Z,39.99
2022-07-27T21:29:16.410Z,39.72
2022-07-27T21:31:46.852Z,40.20
2022-07-27T21:34:18.841Z,39.65
2022-07-27T21:36:46.718Z,39.79
2022-07-27T21:39:13.593Z,40.05
2022-07-27T21:41:40.746Z,39.87
2022-07-27T21:44:07.567Z,39.74
2022-07-27T21:46:34.352Z,40.07
2022-07-27T21:49:01.201Z,39.87
2022-07-27T21:51:28.108Z,40.07
2022-07-27T21:53:55.057Z,39.87
2022-07-27T21:56:21.875Z,40.30
2022-07-27T21:58:48.887Z,40.05
2022-07-27T22:01:16.574Z,40.29
2022-07-27T22:03:44.025Z,40.24
2022-07-27T22:06:11.248Z,40.27
2022-07-27T22:08:38.782Z,40.27
2022-07-27T22:11:05.854Z,40.53
2022-07-27T22:13:32.763Z,40.52
2022-07-27T22:15:59.658Z,40.63
2022-07-27T22:18:26.505Z,40.52
2022-07-27T22:20:53.288Z,40.71
2022-07-27T22:23:20.253Z,40.63
2022-07-27T22:25:47.051Z,40.57
2022-07-27T22:28:13.856Z,40.71
2022-07-27T22:30:40.887Z,40.76
2022-07-27T22:33:08.066Z,40.83
2022-07-27T22:35:35.247Z,40.61
2022-07-27T22:38:02.388Z,40.88
2022-07-27T22:40:29.217Z,40.87
2022-07-27T22:42:56.085Z,40.96
2022-07-27T22:45:23.151Z,40.82
2022-07-27T22:47:50.370Z,40.88
2022-07-27T22:50:20.222Z,41.10
2022-07-27T22:52:48.194Z,41.12
2022-07-27T22:55:15.831Z,41.11
2022-07-27T22:57:42.656Z,41.12
2022-07-27T23:00:10.517Z,41.31
2022-07-27T23:02:38.011Z,41.38
2022-07-27T23:05:05.467Z,41.42
2022-07-27T23:07:32.402Z,41.33
2022-07-27T23:09:59.193Z,41.51
2022-07-27T23:12:25.979Z,41.53
2022-07-27T23:14:52.833Z,41.37
2022-07-27T23:17:19.631Z,41.48
2022-07-27T23:19:46.407Z,41.25
2022-07-27T23:22:13.268Z,41.47
2022-07-27T23:24:44.153Z,41.42
2022-07-27T23:27:11.943Z,41.52
2022-07-27T23:29:38.733Z,41.55
2022-07-27T23:32:08.203Z,41.56
2022-07-27T23:34:35.885Z,41.71
2022-07-27T23:37:02.697Z,41.70
2022-07-27T23:39:29.519Z,41.65
2022-07-27T23:41:56.391Z,41.57
2022-07-27T23:44:23.231Z,41.65
2022-07-27T23:46:50.330Z,41.65
2022-07-27T23:49:17.252Z,41.59
2022-07-27T23:51:44.757Z,41.88
2022-07-27T23:54:11.923Z,41.70
2022-07-27T23:56:39.002Z,41.93
2022-07-27T23:59:05.802Z,41.92
